Time;durP1;ratioP1;P1;durP2;ratioP2;P2;SDS_P1;SDS_P2;PMS_P1;PMS_P2;Temp;Humidity;BMP_temperature;BMP_pressure;BME280_temperature;BME280_humidity;BME280_pressure;Samples;Min_cycle;Max_cycle;Signal;HPM_P1;HPM_P2
2021/10/31 00:01:05;;;;;;;10.98;2.65;;;8.70;99.90;;;;;;5083247;28;20663;-57
2021/10/31 00:03:32;;;;;;;21.52;3.00;;;8.70;99.90;;;;;;5082788;28;20135;-58
2021/10/31 00:05:59;;;;;;;7.80;2.05;;;8.70;99.90;;;;;;5083138;28;20475;-59
2021/10/31 00:08:26;;;;;;;9.60;2.17;;;8.70;99.90;;;;;;5083026;28;20105;-58
2021/10/31 00:10:53;;;;;;;4.78;1.50;;;8.70;99.90;;;;;;5082917;28;21010;-58
2021/10/31 00:13:19;;;;;;;22.80;2.95;;;8.60;99.90;;;;;;5081707;28;20459;-58
2021/10/31 00:15:46;;;;;;;10.60;2.45;;;8.70;99.90;;;;;;5082597;28;20480;-59
2021/10/31 00:18:13;;;;;;;7.55;2.30;;;8.70;99.90;;;;;;5081310;28;20056;-58
2021/10/31 00:20:39;;;;;;;19.13;3.22;;;8.70;99.90;;;;;;5081945;28;20083;-59
2021/10/31 00:23:06;;;;;;;14.07;2.97;;;8.70;99.90;;;;;;5081068;28;20175;-58
2021/10/31 00:25:33;;;;;;;10.10;2.15;;;8.70;99.90;;;;;;5080864;28;20652;-58
2021/10/31 00:28:03;;;;;;;11.40;2.05;;;8.70;99.90;;;;;;5082786;28;20055;-59
2021/10/31 00:30:32;;;;;;;11.43;2.40;;;8.60;99.90;;;;;;5080258;28;20157;-58
2021/10/31 00:32:59;;;;;;;6.53;1.88;;;8.70;99.90;;;;;;5081769;28;20138;-59
2021/10/31 00:35:26;;;;;;;14.27;2.63;;;8.70;99.90;;;;;;5081810;28;20426;-59
2021/10/31 00:37:53;;;;;;;6.93;2.13;;;8.70;99.90;;;;;;5081319;28;20109;-58
2021/10/31 00:40:21;;;;;;;8.55;2.45;;;8.70;99.90;;;;;;5082269;28;20075;-59
2021/10/31 00:42:48;;;;;;;7.53;1.98;;;8.60;99.90;;;;;;5082628;28;20044;-59
2021/10/31 00:45:15;;;;;;;6.65;1.48;;;8.60;99.90;;;;;;5081077;28;20048;-58
2021/10/31 00:47:41;;;;;;;7.05;1.63;;;8.60;99.90;;;;;;5081245;28;20080;-59
2021/10/31 00:50:12;;;;;;;7.65;1.92;;;8.60;99.90;;;;;;5082574;28;20155;-59
2021/10/31 00:52:39;;;;;;;10.80;1.77;;;8.60;99.90;;;;;;5082752;28;20151;-59
2021/10/31 00:55:06;;;;;;;8.85;1.60;;;8.50;99.90;;;;;;5082203;28;20158;-59
2021/10/31 00:57:32;;;;;;;5.68;1.42;;;8.50;99.90;;;;;;5082569;28;20797;-59
2021/10/31 00:59:59;;;;;;;3.45;1.40;;;8.50;99.90;;;;;;5080787;28;20052;-58
2021/10/31 01:02:26;;;;;;;5.60;1.70;;;8.50;99.90;;;;;;5082441;28;20127;-58
2021/10/31 01:04:57;;;;;;;7.65;1.42;;;8.50;99.90;;;;;;5081245;28;20551;-59
2021/10/31 01:07:52;;;;;;;6.85;1.48;;;8.50;99.90;;;;;;5082302;28;20411;-58
2021/10/31 01:10:28;;;;;;;9.55;3.00;;;8.50;99.90;;;;;;5081134;28;20471;-59
2021/10/31 01:13:26;;;;;;;7.25;2.35;;;8.60;99.90;;;;;;5080642;28;20139;-58
2021/10/31 01:15:59;;;;;;;5.55;1.50;;;8.60;99.90;;;;;;5081964;28;20076;-58
2021/10/31 01:18:52;;;;;;;11.13;1.80;;;8.60;99.90;;;;;;5081273;28;20127;-58
2021/10/31 01:21:31;;;;;;;6.53;1.48;;;8.60;99.90;;;;;;5082453;28;20080;-58
2021/10/31 01:24:21;;;;;;;5.68;1.48;;;8.70;99.90;;;;;;5082037;28;20072;-59
2021/10/31 01:27:33;;;;;;;6.60;2.03;;;8.70;99.90;;;;;;5080688;28;20597;-59
2021/10/31 01:30:30;;;;;;;7.22;1.58;;;8.80;99.90;;;;;;5081194;28;20048;-59
2021/10/31 01:33:11;;;;;;;6.72;1.80;;;8.80;99.90;;;;;;5083603;28;20128;-59
2021/10/31 01:36:09;;;;;;;6.20;1.75;;;8.90;99.90;;;;;;5084993;28;20055;-59
2021/10/31 01:39:10;;;;;;;8.38;2.13;;;8.90;99.90;;;;;;5083854;28;20076;-58
2021/10/31 01:41:46;;;;;;;4.80;1.75;;;8.90;99.90;;;;;;5077098;28;20059;-58
2021/10/31 01:44:24;;;;;;;2.85;1.55;;;9.00;99.90;;;;;;5084035;28;20144;-59
2021/10/31 01:46:51;;;;;;;6.57;1.67;;;9.00;99.90;;;;;;5085212;28;20461;-59
2021/10/31 01:49:45;;;;;;;3.95;1.70;;;9.00;99.90;;;;;;5085754;28;20114;-58
2021/10/31 01:52:23;;;;;;;5.47;1.50;;;9.00;99.90;;;;;;5084620;28;20061;-58
2021/10/31 01:54:54;;;;;;;5.25;1.50;;;9.00;99.90;;;;;;5068609;28;20353;-58
2021/10/31 01:57:22;;;;;;;9.80;1.35;;;9.10;99.90;;;;;;5085618;28;20071;-58
2021/10/31 01:59:53;;;;;;;6.43;1.92;;;9.10;99.90;;;;;;5084697;28;20040;-58
2021/10/31 02:02:20;;;;;;;11.93;1.58;;;9.10;99.90;;;;;;5084225;28;20140;-59
2021/10/31 02:04:49;;;;;;;9.00;1.70;;;9.10;99.90;;;;;;5084015;28;20059;-59
2021/10/31 02:07:18;;;;;;;6.68;1.80;;;9.10;99.90;;;;;;5086091;28;20562;-58
2021/10/31 02:09:45;;;;;;;7.47;2.13;;;9.10;99.90;;;;;;5068348;28;20048;-58
2021/10/31 02:12:15;;;;;;;7.30;2.05;;;9.20;99.90;;;;;;5085014;28;21002;-58
2021/10/31 02:14:43;;;;;;;9.10;2.70;;;9.10;99.90;;;;;;5083344;28;20175;-58
2021/10/31 02:17:10;;;;;;;4.32;1.45;;;9.20;99.90;;;;;;5084326;28;20543;-60
2021/10/31 02:19:39;;;;;;;6.85;1.77;;;9.10;99.90;;;;;;5067262;28;20117;-59
2021/10/31 02:22:08;;;;;;;6.43;3.20;;;9.20;99.90;;;;;;5084236;28;20499;-59
2021/10/31 02:24:35;;;;;;;23.50;1.95;;;9.20;99.90;;;;;;5085306;28;20217;-59
2021/10/31 02:27:16;;;;;;;6.88;1.52;;;9.20;99.90;;;;;;5086180;28;20123;-59
2021/10/31 02:29:50;;;;;;;4.07;1.75;;;9.30;99.90;;;;;;5082877;28;20506;-58
2021/10/31 02:32:17;;;;;;;7.28;1.60;;;9.30;99.90;;;;;;5086720;28;20076;-58
2021/10/31 02:34:46;;;;;;;3.60;1.25;;;9.40;99.90;;;;;;5067278;28;20048;-58
2021/10/31 02:37:13;;;;;;;5.78;1.33;;;9.40;99.90;;;;;;5067312;28;20445;-59
2021/10/31 02:39:40;;;;;;;7.85;1.38;;;9.50;99.90;;;;;;5071551;28;20135;-58
2021/10/31 02:42:07;;;;;;;7.78;1.85;;;9.50;99.90;;;;;;5086750;28;20468;-58
2021/10/31 02:44:34;;;;;;;10.07;1.95;;;9.60;99.90;;;;;;5084685;28;20079;-58
2021/10/31 02:47:03;;;;;;;9.60;2.00;;;9.60;99.90;;;;;;5086071;28;20079;-58
2021/10/31 02:49:30;;;;;;;6.40;1.90;;;9.60;99.90;;;;;;5068386;28;20048;-58
2021/10/31 02:52:01;;;;;;;7.68;2.15;;;9.70;99.90;;;;;;5086802;28;20044;-58
2021/10/31 02:54:45;;;;;;;5.20;1.55;;;9.70;99.90;;;;;;5085078;28;20090;-58
2021/10/31 02:57:24;;;;;;;4.63;1.08;;;9.70;99.90;;;;;;5085189;28;20079;-59
2021/10/31 02:59:52;;;;;;;8.90;1.60;;;9.70;99.90;;;;;;5084051;28;20983;-59
2021/10/31 03:02:21;;;;;;;7.43;2.42;;;9.80;99.90;;;;;;5086248;28;20661;-59
2021/10/31 03:04:49;;;;;;;5.93;1.45;;;9.80;99.90;;;;;;5084426;28;20123;-58
2021/10/31 03:07:16;;;;;;;8.75;1.50;;;9.80;99.90;;;;;;5085056;28;20060;-58
2021/10/31 03:09:47;;;;;;;5.63;1.95;;;9.80;99.90;;;;;;5086235;28;20112;-58
2021/10/31 03:12:13;;;;;;;5.30;1.10;;;9.80;99.90;;;;;;5084808;28;20048;-58
2021/10/31 03:14:40;;;;;;;4.13;1.60;;;9.80;99.90;;;;;;5085116;28;20048;-58
2021/10/31 03:17:07;;;;;;;5.47;1.55;;;9.90;99.90;;;;;;5087421;28;20044;-59
2021/10/31 03:19:36;;;;;;;7.15;1.58;;;9.90;99.90;;;;;;5087328;28;20667;-58
2021/10/31 03:22:04;;;;;;;3.78;1.55;;;9.90;99.90;;;;;;5088308;28;20403;-58
2021/10/31 03:24:31;;;;;;;10.88;1.70;;;9.90;99.90;;;;;;5087989;28;20616;-58
2021/10/31 03:26:57;;;;;;;3.47;1.33;;;9.90;99.90;;;;;;5088289;28;20112;-58
2021/10/31 03:29:25;;;;;;;9.38;1.83;;;10.00;99.90;;;;;;5087082;28;20105;-58
2021/10/31 03:31:52;;;;;;;9.32;2.10;;;10.00;99.90;;;;;;5087848;28;20056;-58
2021/10/31 03:34:22;;;;;;;5.95;1.30;;;10.10;99.90;;;;;;5086808;28;20513;-58
2021/10/31 03:36:48;;;;;;;4.93;1.40;;;10.20;99.90;;;;;;5087958;28;20098;-59
2021/10/31 03:39:16;;;;;;;4.72;1.42;;;10.30;99.90;;;;;;5086261;28;20127;-59
2021/10/31 03:41:46;;;;;;;7.72;2.17;;;10.40;99.90;;;;;;5087489;28;20155;-58
2021/10/31 03:44:16;;;;;;;8.05;1.42;;;10.40;99.90;;;;;;5086576;28;20605;-58
2021/10/31 03:46:43;;;;;;;6.53;1.52;;;10.40;99.90;;;;;;5086672;28;20056;-59
2021/10/31 03:49:11;;;;;;;6.95;1.65;;;10.50;99.90;;;;;;5086774;28;20101;-58
2021/10/31 03:51:38;;;;;;;6.43;1.77;;;10.60;99.90;;;;;;5087458;28;20080;-58
2021/10/31 03:54:05;;;;;;;8.02;1.40;;;10.60;99.90;;;;;;5087345;28;20041;-59
2021/10/31 03:56:32;;;;;;;5.75;1.98;;;10.60;99.90;;;;;;5086869;28;20102;-59
2021/10/31 03:58:58;;;;;;;7.30;1.40;;;10.70;99.90;;;;;;5086717;28;20044;-58
2021/10/31 04:01:25;;;;;;;6.35;1.83;;;10.70;99.90;;;;;;5085502;28;20411;-58
2021/10/31 04:03:53;;;;;;;14.30;1.85;;;10.70;99.90;;;;;;5086515;28;20052;-58
2021/10/31 04:06:20;;;;;;;9.85;2.03;;;10.70;99.90;;;;;;5087185;28;20580;-58
2021/10/31 04:08:47;;;;;;;9.65;2.53;;;10.70;99.90;;;;;;5086969;28;20123;-59
2021/10/31 04:11:13;;;;;;;5.78;1.40;;;10.70;99.90;;;;;;5087465;28;20075;-58
2021/10/31 04:13:40;;;;;;;5.45;1.13;;;10.70;99.90;;;;;;5085597;28;20044;-58
2021/10/31 04:16:07;;;;;;;3.38;1.40;;;10.70;99.90;;;;;;5085511;28;20044;-58
2021/10/31 04:18:34;;;;;;;5.22;1.50;;;10.80;99.90;;;;;;5086090;28;20530;-58
2021/10/31 04:21:01;;;;;;;6.90;2.40;;;10.80;99.90;;;;;;5087287;28;20079;-58
2021/10/31 04:23:30;;;;;;;5.00;1.50;;;10.80;99.90;;;;;;5086282;28;20511;-58
2021/10/31 04:25:57;;;;;;;11.55;2.92;;;10.80;99.90;;;;;;5087157;28;20079;-58
2021/10/31 04:28:26;;;;;;;8.57;1.88;;;10.80;99.90;;;;;;5085635;28;20079;-58
2021/10/31 04:30:53;;;;;;;12.23;2.20;;;10.80;99.90;;;;;;5086413;28;20052;-58
2021/10/31 04:33:20;;;;;;;4.55;1.50;;;10.80;99.90;;;;;;5085780;28;20123;-58
2021/10/31 04:35:46;;;;;;;7.85;3.75;;;10.80;99.90;;;;;;5086660;28;20463;-59
2021/10/31 04:38:32;;;;;;;9.38;2.60;;;10.80;99.90;;;;;;5086322;28;20052;-58
2021/10/31 04:40:59;;;;;;;6.28;1.42;;;10.90;99.90;;;;;;5086420;28;20158;-59
2021/10/31 04:43:27;;;;;;;9.95;2.30;;;10.90;99.90;;;;;;5085888;28;20068;-59
2021/10/31 04:45:54;;;;;;;9.02;2.03;;;10.90;99.90;;;;;;5086227;28;20093;-58
2021/10/31 04:48:24;;;;;;;6.28;2.15;;;10.90;99.90;;;;;;5085466;28;20154;-58
2021/10/31 04:50:54;;;;;;;6.40;1.40;;;10.90;99.90;;;;;;5086693;28;20047;-58
2021/10/31 04:53:21;;;;;;;7.15;2.17;;;11.00;99.90;;;;;;5085900;28;20051;-58
2021/10/31 04:55:48;;;;;;;5.82;1.98;;;10.90;99.90;;;;;;5068637;28;20073;-58
2021/10/31 04:58:15;;;;;;;6.53;1.50;;;11.00;99.90;;;;;;5085653;28;20079;-58
2021/10/31 05:00:41;;;;;;;5.80;1.35;;;11.00;99.90;;;;;;5086315;28;20079;-58
2021/10/31 05:03:09;;;;;;;10.15;1.27;;;11.00;99.90;;;;;;5085484;28;20040;-58
2021/10/31 05:05:35;;;;;;;8.48;1.88;;;11.10;99.90;;;;;;5086435;28;20052;-59
2021/10/31 05:08:05;;;;;;;5.53;1.67;;;11.10;99.90;;;;;;5085772;28;20672;-58
2021/10/31 05:10:31;;;;;;;5.13;1.50;;;11.10;99.90;;;;;;5084970;28;20079;-59
2021/10/31 05:12:58;;;;;;;6.97;1.85;;;11.10;99.90;;;;;;5086145;28;20123;-58
2021/10/31 05:15:25;;;;;;;9.70;1.42;;;11.20;99.90;;;;;;5084944;28;20141;-58
2021/10/31 05:17:53;;;;;;;7.45;1.55;;;11.20;99.90;;;;;;5085433;28;20078;-59
2021/10/31 05:20:20;;;;;;;12.15;1.92;;;11.20;99.90;;;;;;5085127;28;20052;-58
2021/10/31 05:22:47;;;;;;;16.02;4.10;;;11.20;99.90;;;;;;5086209;28;20044;-58
2021/10/31 05:25:13;;;;;;;8.65;2.30;;;11.20;99.90;;;;;;5085912;28;20127;-58
2021/10/31 05:27:40;;;;;;;4.50;1.23;;;11.30;99.90;;;;;;5085993;28;20054;-58
2021/10/31 05:30:09;;;;;;;4.45;1.42;;;11.30;99.90;;;;;;5084805;28;20123;-58
2021/10/31 05:32:37;;;;;;;7.47;2.25;;;11.30;99.90;;;;;;5085577;28;20075;-59
2021/10/31 05:35:05;;;;;;;8.23;1.75;;;11.40;99.90;;;;;;5085659;28;20224;-58
2021/10/31 05:37:35;;;;;;;4.97;1.75;;;11.40;99.90;;;;;;5084165;28;20082;-59
2021/10/31 05:40:03;;;;;;;10.13;1.85;;;11.50;99.90;;;;;;5083738;28;20080;-59
2021/10/31 05:42:30;;;;;;;8.07;1.77;;;11.50;99.90;;;;;;5067716;28;20079;-58
2021/10/31 05:44:56;;;;;;;10.32;2.40;;;11.50;99.90;;;;;;5084877;28;20132;-58
2021/10/31 05:47:24;;;;;;;8.98;2.60;;;11.50;99.90;;;;;;5085089;28;20086;-58
2021/10/31 05:49:51;;;;;;;6.32;1.90;;;11.50;99.90;;;;;;5072725;28;20056;-58
2021/10/31 05:52:18;;;;;;;6.25;2.00;;;11.60;99.90;;;;;;5078561;28;20122;-58
2021/10/31 05:54:45;;;;;;;9.95;1.90;;;11.60;99.90;;;;;;5078975;28;20083;-59
2021/10/31 05:57:12;;;;;;;11.45;2.33;;;11.60;99.90;;;;;;5081739;28;20075;-58
2021/10/31 05:59:38;;;;;;;9.35;2.15;;;11.60;99.90;;;;;;5078733;28;20135;-58
2021/10/31 06:02:08;;;;;;;10.75;2.90;;;11.70;99.90;;;;;;5078921;28;20062;-58
2021/10/31 06:04:35;;;;;;;10.80;1.50;;;11.70;99.90;;;;;;5078834;28;20131;-58
2021/10/31 06:07:02;;;;;;;10.57;2.28;;;11.70;99.90;;;;;;5079432;28;20575;-59
2021/10/31 06:09:28;;;;;;;8.68;1.65;;;11.70;99.90;;;;;;5079536;28;20112;-58
2021/10/31 06:11:55;;;;;;;9.40;2.25;;;11.80;99.90;;;;;;5079555;28;20075;-58
2021/10/31 06:14:24;;;;;;;15.10;2.45;;;11.80;99.90;;;;;;5076586;28;20124;-59
2021/10/31 06:16:54;;;;;;;6.40;1.55;;;11.80;99.90;;;;;;5077857;28;20080;-59
2021/10/31 06:19:20;;;;;;;12.57;2.05;;;11.90;99.90;;;;;;5080149;28;20124;-59
2021/10/31 06:21:47;;;;;;;9.27;1.70;;;11.90;99.90;;;;;;5083545;28;20679;-59
2021/10/31 06:24:14;;;;;;;7.03;2.00;;;11.90;99.90;;;;;;5083831;28;20065;-59
2021/10/31 06:26:41;;;;;;;9.82;1.90;;;11.90;99.90;;;;;;5082938;28;20134;-59
2021/10/31 06:29:08;;;;;;;8.90;1.63;;;11.90;99.90;;;;;;5082159;28;20074;-59
2021/10/31 06:31:34;;;;;;;6.78;1.75;;;11.90;99.90;;;;;;5082583;28;20496;-58
2021/10/31 06:34:01;;;;;;;10.43;2.50;;;12.00;99.90;;;;;;5081342;28;20087;-59
2021/10/31 06:36:28;;;;;;;9.75;2.38;;;12.00;99.90;;;;;;5082943;28;20040;-58
2021/10/31 06:38:55;;;;;;;8.18;2.30;;;12.00;99.90;;;;;;5082010;28;20123;-59
2021/10/31 06:41:23;;;;;;;4.20;1.73;;;12.00;99.90;;;;;;5083184;28;20052;-61
2021/10/31 06:43:50;;;;;;;11.95;3.67;;;12.00;99.90;;;;;;5082267;28;20098;-59
2021/10/31 06:46:17;;;;;;;7.78;2.55;;;12.10;99.90;;;;;;5081021;28;20478;-60
2021/10/31 06:48:44;;;;;;;10.20;2.35;;;12.00;99.90;;;;;;5079622;28;20055;-59
2021/10/31 06:51:10;;;;;;;8.50;2.78;;;12.00;99.90;;;;;;5078608;28;20127;-58
2021/10/31 06:53:37;;;;;;;8.88;1.80;;;12.00;99.90;;;;;;5081764;28;20131;-58
2021/10/31 06:56:04;;;;;;;5.05;1.90;;;12.10;99.90;;;;;;5082812;28;20109;-59
2021/10/31 06:58:31;;;;;;;9.27;2.15;;;12.00;99.90;;;;;;5080852;28;20542;-58
2021/10/31 07:00:58;;;;;;;9.48;2.10;;;12.00;99.90;;;;;;5080647;28;20048;-58
2021/10/31 07:03:26;;;;;;;11.52;4.18;;;12.00;99.90;;;;;;5079789;28;20628;-57
2021/10/31 07:05:52;;;;;;;8.70;2.58;;;12.00;99.90;;;;;;5079823;28;20484;-58
2021/10/31 07:08:19;;;;;;;9.40;2.50;;;12.00;99.90;;;;;;5079633;28;20481;-58
2021/10/31 07:10:46;;;;;;;7.80;1.40;;;12.00;99.90;;;;;;5081071;28;20470;-58
2021/10/31 07:13:13;;;;;;;4.72;1.42;;;12.00;99.90;;;;;;5080025;28;20078;-58
2021/10/31 07:15:39;;;;;;;6.13;1.25;;;12.00;99.90;;;;;;5080492;28;20100;-58
2021/10/31 07:18:06;;;;;;;8.57;1.85;;;12.00;99.90;;;;;;5078887;28;20115;-58
2021/10/31 07:20:33;;;;;;;5.28;1.52;;;12.00;99.90;;;;;;5080345;28;20135;-57
2021/10/31 07:23:00;;;;;;;13.75;2.42;;;12.00;99.90;;;;;;5080253;28;20079;-57
2021/10/31 07:25:28;;;;;;;4.15;1.30;;;11.90;99.90;;;;;;5081389;28;20977;-57
2021/10/31 07:27:55;;;;;;;3.47;1.27;;;11.90;99.90;;;;;;5081849;28;20099;-57
2021/10/31 07:30:22;;;;;;;9.02;1.40;;;11.90;99.90;;;;;;5080318;28;20131;-58
2021/10/31 07:32:59;;;;;;;1.88;0.82;;;11.90;99.90;;;;;;5079451;28;20416;-56
2021/10/31 07:35:26;;;;;;;4.40;1.40;;;11.90;99.90;;;;;;5081796;28;20922;-58
2021/10/31 07:37:53;;;;;;;2.10;0.80;;;11.90;99.90;;;;;;5081534;28;20044;-56
2021/10/31 07:40:22;;;;;;;3.45;1.20;;;11.90;99.90;;;;;;5070957;28;20786;-58
2021/10/31 07:42:54;;;;;;;3.60;1.00;;;11.80;99.90;;;;;;5069495;28;20658;-58
2021/10/31 07:45:36;;;;;;;3.58;0.90;;;11.90;99.90;;;;;;5080336;28;20052;-57
2021/10/31 07:48:04;;;;;;;4.50;0.93;;;11.90;99.90;;;;;;5078814;28;20064;-58
2021/10/31 07:50:34;;;;;;;5.07;3.28;;;11.80;99.90;;;;;;5078615;28;20051;-58
2021/10/31 07:53:03;;;;;;;5.30;1.73;;;11.90;99.90;;;;;;5078919;28;20105;-60
2021/10/31 07:55:34;;;;;;;2.33;1.17;;;11.80;99.90;;;;;;5078667;28;20113;-57
2021/10/31 07:58:04;;;;;;;4.75;1.17;;;11.90;99.90;;;;;;5080245;28;20143;-57
2021/10/31 08:00:32;;;;;;;4.20;1.60;;;11.90;99.90;;;;;;5078072;28;20131;-56
2021/10/31 08:02:59;;;;;;;6.32;1.42;;;11.90;99.90;;;;;;5060959;28;20084;-58
2021/10/31 08:05:26;;;;;;;2.97;1.00;;;11.90;99.90;;;;;;5080328;28;20044;-58
2021/10/31 08:07:54;;;;;;;5.07;1.20;;;11.90;99.90;;;;;;5079956;28;20289;-56
2021/10/31 08:10:20;;;;;;;3.03;1.00;;;11.90;99.90;;;;;;5079846;28;20436;-57
2021/10/31 08:12:47;;;;;;;2.95;0.85;;;11.90;99.90;;;;;;5080214;28;20075;-59
2021/10/31 08:15:14;;;;;;;4.43;1.05;;;11.90;99.90;;;;;;5077346;28;20044;-57
2021/10/31 08:17:41;;;;;;;6.45;1.25;;;11.90;99.90;;;;;;5079516;28;20058;-58
2021/10/31 08:20:08;;;;;;;2.28;1.05;;;12.00;99.90;;;;;;5076079;28;20154;-58
2021/10/31 08:22:35;;;;;;;4.32;1.00;;;12.00;99.90;;;;;;5079905;28;20128;-58
2021/10/31 08:25:03;;;;;;;2.22;0.90;;;12.00;99.90;;;;;;5079167;28;20152;-58
2021/10/31 08:27:34;;;;;;;6.57;1.13;;;12.00;99.90;;;;;;5079668;28;20696;-59
2021/10/31 08:30:00;;;;;;;5.45;1.20;;;12.00;99.90;;;;;;5078120;28;20763;-58
2021/10/31 08:32:28;;;;;;;4.80;1.27;;;12.00;99.90;;;;;;5079294;28;20479;-58
2021/10/31 08:34:55;;;;;;;3.45;1.02;;;12.00;99.90;;;;;;5077636;28;20040;-58
2021/10/31 08:37:22;;;;;;;4.95;1.38;;;12.00;99.90;;;;;;5077792;28;20572;-58
2021/10/31 08:39:49;;;;;;;6.20;1.42;;;12.10;99.90;;;;;;5078510;28;20543;-58
2021/10/31 08:42:16;;;;;;;3.88;1.48;;;12.00;99.90;;;;;;5077840;28;20048;-58
2021/10/31 08:44:42;;;;;;;4.82;1.05;;;12.10;99.90;;;;;;5076460;28;20079;-58
2021/10/31 08:47:09;;;;;;;3.53;1.08;;;12.10;99.90;;;;;;5077311;28;20135;-58
2021/10/31 08:49:36;;;;;;;4.53;1.40;;;12.10;99.90;;;;;;5077628;28;20114;-58
2021/10/31 08:52:07;;;;;;;4.43;1.50;;;12.20;99.90;;;;;;5074834;28;20135;-59
2021/10/31 08:54:39;;;;;;;3.20;1.38;;;12.20;99.90;;;;;;5078711;28;20697;-58
2021/10/31 08:57:06;;;;;;;4.13;1.40;;;12.20;99.90;;;;;;5078354;28;20140;-58
2021/10/31 08:59:36;;;;;;;5.35;1.42;;;12.20;99.90;;;;;;5077951;28;20044;-59
2021/10/31 09:02:03;;;;;;;7.43;1.65;;;12.20;99.90;;;;;;5076907;28;20087;-58
2021/10/31 09:04:31;;;;;;;5.70;1.45;;;12.20;99.90;;;;;;5075503;28;20059;-58
2021/10/31 09:06:57;;;;;;;6.78;2.35;;;12.20;99.90;;;;;;5076746;28;20147;-58
2021/10/31 09:09:24;;;;;;;4.68;1.48;;;12.30;99.90;;;;;;5083003;28;20047;-58
2021/10/31 09:11:51;;;;;;;6.32;1.60;;;12.30;99.90;;;;;;5083483;28;20475;-58
2021/10/31 09:14:19;;;;;;;12.75;2.28;;;12.40;99.90;;;;;;5082675;28;20040;-58
2021/10/31 09:16:45;;;;;;;5.75;2.00;;;12.40;99.90;;;;;;5083308;28;20944;-58
2021/10/31 09:19:12;;;;;;;6.40;1.95;;;12.40;99.90;;;;;;5083582;28;20228;-58
2021/10/31 09:21:40;;;;;;;4.53;1.50;;;12.40;99.90;;;;;;5083906;28;20538;-58
2021/10/31 09:24:07;;;;;;;6.38;1.80;;;12.50;99.90;;;;;;5080667;28;20089;-58
2021/10/31 09:26:35;;;;;;;5.57;1.27;;;12.50;99.90;;;;;;5083938;28;20127;-58
2021/10/31 09:29:02;;;;;;;4.55;1.55;;;12.50;99.90;;;;;;5082619;28;20075;-58
2021/10/31 09:31:29;;;;;;;6.50;1.27;;;12.50;99.90;;;;;;5081203;28;20044;-58
2021/10/31 09:33:58;;;;;;;4.20;1.55;;;12.60;99.90;;;;;;5082931;28;20050;-58
2021/10/31 09:36:25;;;;;;;4.53;1.90;;;12.60;99.90;;;;;;5083586;28;20138;-59
2021/10/31 09:38:54;;;;;;;8.65;3.13;;;12.60;99.90;;;;;;5083714;28;20098;-58
2021/10/31 09:41:23;;;;;;;8.18;2.95;;;12.60;99.90;;;;;;5084223;28;20136;-58
2021/10/31 09:43:58;;;;;;;6.65;1.83;;;12.70;99.90;;;;;;5081136;28;20146;-58
2021/10/31 09:46:25;;;;;;;7.13;1.52;;;12.70;99.90;;;;;;5082498;28;20052;-58
2021/10/31 09:48:53;;;;;;;6.53;1.60;;;12.70;99.90;;;;;;5082856;28;20062;-59
2021/10/31 09:51:20;;;;;;;7.03;1.73;;;12.80;99.90;;;;;;5064780;28;20076;-58
2021/10/31 09:53:48;;;;;;;6.38;1.55;;;12.80;99.90;;;;;;5081146;28;20060;-58
2021/10/31 09:56:15;;;;;;;7.22;1.88;;;12.80;99.90;;;;;;5088586;28;20505;-59
2021/10/31 09:58:43;;;;;;;5.80;1.65;;;12.80;99.90;;;;;;5086338;28;20052;-59
2021/10/31 10:01:38;;;;;;;8.25;2.92;;;12.80;99.90;;;;;;5088735;28;20105;-59
2021/10/31 10:04:05;;;;;;;7.00;1.98;;;12.80;99.90;;;;;;5087692;28;20052;-59
2021/10/31 10:06:35;;;;;;;7.80;1.75;;;12.80;99.90;;;;;;5089104;28;20087;-59
2021/10/31 10:09:11;;;;;;;9.00;1.52;;;12.80;99.90;;;;;;5070753;28;20071;-58
2021/10/31 10:11:40;;;;;;;7.43;1.63;;;12.80;99.90;;;;;;5088766;28;20227;-59
2021/10/31 10:14:08;;;;;;;8.10;1.88;;;12.80;99.90;;;;;;5086893;28;20101;-59
2021/10/31 10:16:35;;;;;;;5.88;2.30;;;12.80;99.90;;;;;;5087242;28;20599;-59
2021/10/31 10:19:05;;;;;;;4.22;1.67;;;12.80;99.90;;;;;;5086477;28;20464;-58
2021/10/31 10:21:32;;;;;;;7.53;1.70;;;12.80;99.90;;;;;;5071166;28;20079;-58
2021/10/31 10:24:06;;;;;;;8.30;1.52;;;12.80;99.90;;;;;;5087938;28;20090;-59
2021/10/31 10:26:35;;;;;;;6.15;1.70;;;12.80;99.90;;;;;;5087048;28;20434;-58
2021/10/31 10:29:16;;;;;;;7.25;1.73;;;12.80;99.90;;;;;;5085002;28;20139;-58
2021/10/31 10:31:56;;;;;;;4.75;1.38;;;12.70;99.90;;;;;;5083510;28;20134;-58
2021/10/31 10:34:31;;;;;;;5.55;1.58;;;12.70;99.90;;;;;;5087193;28;20491;-58
2021/10/31 10:37:00;;;;;;;9.65;2.05;;;12.70;99.90;;;;;;5087823;28;20163;-60
2021/10/31 10:39:34;;;;;;;17.50;2.78;;;12.60;99.90;;;;;;5069579;28;20511;-62
2021/10/31 10:42:02;;;;;;;3.85;1.83;;;12.60;99.90;;;;;;5085228;28;20434;-60
2021/10/31 10:44:30;;;;;;;2.78;1.08;;;12.40;99.90;;;;;;5086082;28;20075;-58
2021/10/31 10:47:03;;;;;;;9.05;0.90;;;12.30;99.90;;;;;;5086871;28;20139;-60
2021/10/31 10:49:32;;;;;;;6.47;1.30;;;12.30;99.90;;;;;;5086250;28;20048;-60
2021/10/31 10:52:10;;;;;;;13.80;1.75;;;12.10;99.90;;;;;;5085641;28;20549;-60
2021/10/31 10:54:37;;;;;;;5.93;1.80;;;12.10;99.90;;;;;;5087003;28;20067;-58
2021/10/31 10:57:08;;;;;;;4.00;1.30;;;12.10;99.90;;;;;;5086879;28;20135;-58
2021/10/31 10:59:37;;;;;;;4.10;1.88;;;12.10;99.90;;;;;;5073562;28;20443;-58
2021/10/31 11:02:15;;;;;;;5.65;1.52;;;12.10;99.90;;;;;;5079194;28;20159;-59
2021/10/31 11:04:45;;;;;;;4.63;1.17;;;12.20;99.90;;;;;;5077265;28;20060;-59
2021/10/31 11:07:14;;;;;;;6.23;1.70;;;12.30;99.90;;;;;;5077658;28;20554;-59
2021/10/31 11:09:42;;;;;;;10.82;1.60;;;12.30;99.90;;;;;;5079432;28;20662;-59
2021/10/31 11:12:33;;;;;;;12.90;1.80;;;12.40;99.90;;;;;;5080950;28;20052;-59
2021/10/31 11:15:27;;;;;;;5.60;1.38;;;12.50;99.90;;;;;;5080072;28;20044;-59
2021/10/31 11:17:59;;;;;;;5.20;1.33;;;12.50;99.90;;;;;;5079423;28;20790;-59
2021/10/31 11:20:28;;;;;;;6.85;1.42;;;12.30;99.90;;;;;;5063194;28;20048;-58
2021/10/31 11:22:57;;;;;;;7.22;1.40;;;11.80;99.90;;;;;;5079475;28;20052;-58
2021/10/31 11:25:25;;;;;;;8.80;1.80;;;11.40;99.90;;;;;;5080722;28;20048;-59
2021/10/31 11:27:53;;;;;;;5.20;1.40;;;11.40;99.90;;;;;;5081281;28;20159;-59
2021/10/31 11:30:20;;;;;;;7.13;2.10;;;11.50;99.90;;;;;;5077772;28;20067;-59
2021/10/31 11:32:47;;;;;;;7.80;1.90;;;11.70;99.90;;;;;;5080023;28;20135;-58
2021/10/31 11:35:16;;;;;;;12.32;2.17;;;11.80;99.90;;;;;;5080565;28;20444;-58
2021/10/31 11:37:46;;;;;;;18.70;2.85;;;11.70;99.90;;;;;;5080877;28;20090;-59
2021/10/31 11:40:14;;;;;;;9.50;3.17;;;11.70;99.90;;;;;;5077182;28;20162;-59
2021/10/31 11:42:47;;;;;;;9.85;1.95;;;11.70;99.90;;;;;;5073825;28;20060;-59
2021/10/31 11:45:17;;;;;;;7.10;1.50;;;11.80;99.90;;;;;;5078793;28;20098;-61
2021/10/31 11:48:08;;;;;;;11.27;1.95;;;11.80;99.90;;;;;;5078244;28;20455;-58
2021/10/31 11:50:34;;;;;;;19.73;3.25;;;11.80;99.90;;;;;;5077092;28;20118;-61
2021/10/31 11:53:01;;;;;;;9.25;2.50;;;12.00;99.90;;;;;;5080543;28;20130;-59
2021/10/31 11:55:33;;;;;;;10.93;2.35;;;12.20;99.90;;;;;;5081014;28;20087;-61
2021/10/31 11:58:23;;;;;;;14.77;3.53;;;12.40;99.90;;;;;;5080490;28;20135;-61
2021/10/31 12:00:54;;;;;;;13.23;2.72;;;12.60;99.90;;;;;;5081236;28;20161;-61
2021/10/31 12:03:40;;;;;;;13.63;2.72;;;12.80;99.90;;;;;;5076869;28;20109;-59
2021/10/31 12:06:16;;;;;;;14.95;2.80;;;13.00;99.90;;;;;;5081340;28;20146;-61
2021/10/31 12:08:54;;;;;;;11.18;3.72;;;13.20;99.90;;;;;;5080763;28;20681;-61
2021/10/31 12:11:30;;;;;;;15.35;3.08;;;13.40;99.90;;;;;;5059899;28;20049;-59
2021/10/31 12:14:04;;;;;;;11.50;3.25;;;13.50;99.90;;;;;;5075913;28;20155;-59
2021/10/31 12:16:51;;;;;;;;;;;13.80;99.90;;;;;;5079749;28;20059;-59
2021/10/31 12:19:42;;;;;;;15.27;3.50;;;13.90;99.90;;;;;;5080909;28;19923;-59
2021/10/31 12:22:37;;;;;;;10.57;3.00;;;14.00;99.90;;;;;;5080982;28;20467;-62
2021/10/31 12:25:11;;;;;;;15.77;3.05;;;13.70;99.90;;;;;;5075308;28;20696;-59
2021/10/31 12:27:47;;;;;;;13.48;3.22;;;13.50;99.90;;;;;;5080941;28;20671;-59
2021/10/31 12:30:21;;;;;;;12.60;2.85;;;13.30;99.90;;;;;;5079750;28;20139;-59
2021/10/31 12:32:48;;;;;;;16.55;3.22;;;13.30;99.90;;;;;;5079932;28;20071;-60
2021/10/31 12:35:35;;;;;;;13.15;3.22;;;13.30;99.90;;;;;;5078472;28;20569;-58
2021/10/31 12:38:20;;;;;;;16.27;3.53;;;13.70;99.10;;;;;;5071443;28;20112;-60
2021/10/31 12:41:18;;;;;;;19.10;3.38;;;14.10;99.10;;;;;;5080548;28;20044;-60
2021/10/31 12:43:55;;;;;;;13.88;4.00;;;14.60;97.30;;;;;;5073322;28;20071;-59
2021/10/31 12:46:26;;;;;;;17.75;4.47;;;14.80;96.00;;;;;;5077903;28;20068;-59
2021/10/31 12:48:55;;;;;;;15.50;4.32;;;14.90;95.10;;;;;;5075551;28;20515;-59
2021/10/31 12:52:11;;;;;;;14.48;2.85;;;15.10;94.50;;;;;;5080920;28;20052;-59
2021/10/31 12:54:37;;;;;;;;;;;15.30;94.80;;;;;;5079922;28;20660;-59
2021/10/31 12:57:08;;;;;;;18.90;4.43;;;15.50;94.30;;;;;;5080231;28;20005;-59
2021/10/31 12:59:45;;;;;;;16.15;4.57;;;15.50;92.10;;;;;;5074910;28;20131;-59
2021/10/31 13:02:13;;;;;;;16.33;3.90;;;15.70;92.00;;;;;;5074013;28;20074;-59
2021/10/31 13:05:06;;;;;;;22.17;3.72;;;15.70;92.30;;;;;;5076826;28;20135;-59